createdAt,value
2023-01-12T00:01:32.158Z,1.52
2023-01-12T00:03:58.587Z,1.88
2023-01-12T00:06:25.323Z,1.40
2023-01-12T00:08:52.481Z,1.50
2023-01-12T00:11:19.474Z,1.48
2023-01-12T00:13:45.846Z,1.35
2023-01-12T00:16:34.729Z,1.50
2023-01-12T00:19:01.630Z,1.52
2023-01-12T00:21:28.057Z,1.50
2023-01-12T00:23:54.467Z,1.60
2023-01-12T00:26:20.777Z,1.85
2023-01-12T00:28:47.101Z,1.58
2023-01-12T00:31:13.508Z,1.85
2023-01-12T00:33:40.122Z,1.63
2023-01-12T00:36:08.128Z,1.40
2023-01-12T00:38:35.467Z,1.20
2023-01-12T00:41:09.156Z,1.40
2023-01-12T00:43:54.259Z,1.45
2023-01-12T00:46:29.376Z,1.60
2023-01-12T00:48:55.723Z,1.50
2023-01-12T00:51:22.007Z,1.90
2023-01-12T00:53:48.456Z,1.52
2023-01-12T00:56:14.770Z,1.65
2023-01-12T00:58:41.060Z,1.67
2023-01-12T01:01:08.205Z,1.60
2023-01-12T01:03:34.877Z,1.35
2023-01-12T01:06:02.066Z,1.33
2023-01-12T01:08:28.487Z,1.52
2023-01-12T01:11:05.533Z,1.20
2023-01-12T01:13:31.941Z,1.40
2023-01-12T01:16:01.544Z,1.40
2023-01-12T01:18:28.304Z,1.30
2023-01-12T01:20:55.143Z,1.10
2023-01-12T01:23:21.912Z,1.52
2023-01-12T01:25:48.190Z,1.45
2023-01-12T01:28:15.085Z,1.13
2023-01-12T01:30:41.639Z,1.40
2023-01-12T01:33:07.965Z,1.40
2023-01-12T01:35:35.263Z,1.30
2023-01-12T01:38:01.678Z,1.05
2023-01-12T01:40:28.007Z,0.90
2023-01-12T01:42:54.386Z,1.20
2023-01-12T01:45:21.017Z,1.08
2023-01-12T01:47:49.282Z,1.27
2023-01-12T01:50:20.797Z,2.17
2023-01-12T01:52:56.092Z,1.10
2023-01-12T01:55:24.818Z,1.30
2023-01-12T01:57:53.483Z,1.20
2023-01-12T02:00:20.152Z,1.13
2023-01-12T02:02:47.108Z,1.55
2023-01-12T02:05:16.187Z,1.00
2023-01-12T02:07:42.765Z,1.00
2023-01-12T02:10:09.453Z,1.38
2023-01-12T02:12:54.434Z,1.77
2023-01-12T02:15:41.205Z,1.98
2023-01-12T02:18:11.320Z,1.80
2023-01-12T02:20:52.874Z,1.45
2023-01-12T02:23:22.463Z,1.20
2023-01-12T02:25:48.738Z,1.20
2023-01-12T02:28:27.061Z,1.50
2023-01-12T02:31:12.140Z,1.58
2023-01-12T02:33:44.453Z,1.30
2023-01-12T02:36:31.052Z,1.55
2023-01-12T02:39:01.789Z,1.35
2023-01-12T02:42:22.599Z,2.28
2023-01-12T02:44:53.741Z,1.58
2023-01-12T02:47:27.166Z,1.47
2023-01-12T02:49:55.985Z,1.30
2023-01-12T02:52:24.230Z,1.48
2023-01-12T02:54:52.146Z,1.58
2023-01-12T02:57:20.470Z,1.40
2023-01-12T02:59:50.563Z,1.40
2023-01-12T03:02:18.837Z,1.92
2023-01-12T03:04:45.489Z,1.52
2023-01-12T03:07:14.920Z,1.90
2023-01-12T03:09:43.582Z,1.75
2023-01-12T03:12:13.422Z,1.67
2023-01-12T03:14:42.947Z,1.65
2023-01-12T03:17:11.166Z,1.50
2023-01-12T03:19:39.644Z,1.27
2023-01-12T03:22:08.091Z,1.45
2023-01-12T03:24:37.424Z,1.70
2023-01-12T03:27:13.065Z,1.63
2023-01-12T03:29:51.922Z,1.70
2023-01-12T03:32:19.906Z,1.52
2023-01-12T03:34:46.490Z,1.17
2023-01-12T03:37:18.918Z,1.95
2023-01-12T03:39:48.377Z,1.52
2023-01-12T03:42:23.590Z,1.42
2023-01-12T03:45:05.261Z,1.40
2023-01-12T03:47:32.367Z,2.13
2023-01-12T03:50:03.123Z,1.50
2023-01-12T03:52:31.221Z,1.38
2023-01-12T03:54:58.642Z,1.60
2023-01-12T03:57:25.867Z,1.73
2023-01-12T03:59:53.537Z,1.88
2023-01-12T04:02:20.358Z,1.10
2023-01-12T04:04:46.799Z,1.13
2023-01-12T04:07:13.152Z,1.50
2023-01-12T04:09:39.549Z,1.30
2023-01-12T04:12:11.627Z,0.90
2023-01-12T04:17:04.358Z,1.30
2023-01-12T04:19:30.651Z,1.15
2023-01-12T04:22:16.047Z,1.40
2023-01-12T04:24:42.410Z,1.35
2023-01-12T04:27:08.879Z,1.00
2023-01-12T04:29:35.384Z,2.05
2023-01-12T04:32:01.750Z,1.55
2023-01-12T04:34:28.061Z,0.93
2023-01-12T04:36:54.767Z,1.42
2023-01-12T04:39:21.057Z,0.90
2023-01-12T04:41:47.388Z,1.20
2023-01-12T04:44:13.807Z,1.02
2023-01-12T04:46:40.148Z,1.10
2023-01-12T04:49:06.611Z,1.23
2023-01-12T04:51:33.007Z,1.02
2023-01-12T04:53:59.355Z,1.05
2023-01-12T04:56:25.646Z,1.15
2023-01-12T04:58:55.471Z,1.10
2023-01-12T05:01:22.540Z,1.20
2023-01-12T05:03:49.127Z,1.40
2023-01-12T05:06:15.600Z,1.08
2023-01-12T05:09:00.741Z,0.90
2023-01-12T05:11:28.575Z,1.05
2023-01-12T05:13:55.533Z,1.55
2023-01-12T05:16:21.959Z,1.10
2023-01-12T05:18:48.752Z,1.23
2023-01-12T05:21:15.815Z,1.10
2023-01-12T05:23:42.128Z,1.00
2023-01-12T05:26:08.481Z,1.38
2023-01-12T05:28:34.894Z,1.38
2023-01-12T05:31:02.328Z,1.42
2023-01-12T05:33:28.689Z,0.90
2023-01-12T05:35:55.097Z,1.10
2023-01-12T05:38:21.380Z,1.13
2023-01-12T05:40:47.708Z,0.63
2023-01-12T05:43:32.946Z,0.85
2023-01-12T05:46:06.035Z,1.40
2023-01-12T05:48:32.449Z,1.00
2023-01-12T05:51:05.390Z,0.98
2023-01-12T05:53:31.981Z,0.75
2023-01-12T05:55:58.657Z,0.80
2023-01-12T05:58:25.375Z,0.63
2023-01-12T06:00:51.747Z,0.90
2023-01-12T06:03:18.160Z,0.95
2023-01-12T06:05:44.511Z,1.05
2023-01-12T06:08:10.858Z,1.00
2023-01-12T06:10:39.248Z,1.10
2023-01-12T06:13:40.745Z,0.70
2023-01-12T06:16:09.296Z,1.08
2023-01-12T06:18:36.538Z,0.82
2023-01-12T06:21:03.739Z,1.10
2023-01-12T06:23:35.218Z,1.02
2023-01-12T06:26:07.736Z,1.77
2023-01-12T06:28:36.496Z,0.85
2023-01-12T06:31:04.356Z,1.05
2023-01-12T06:33:31.115Z,1.10
2023-01-12T06:35:57.589Z,1.35
2023-01-12T06:38:25.259Z,0.95
2023-01-12T06:40:52.342Z,1.20
2023-01-12T06:43:19.231Z,1.00
2023-01-12T06:45:45.773Z,0.90
2023-01-12T06:48:12.145Z,1.23
2023-01-12T06:50:38.466Z,1.23
2023-01-12T06:53:05.303Z,1.00
2023-01-12T06:55:31.596Z,1.35
2023-01-12T06:58:00.994Z,1.40
2023-01-12T07:00:27.388Z,1.00
2023-01-12T07:02:53.673Z,0.90
2023-01-12T07:05:19.953Z,2.47
2023-01-12T07:07:46.417Z,1.35
2023-01-12T07:10:13.238Z,1.60
2023-01-12T07:12:39.683Z,1.10
2023-01-12T07:15:06.399Z,1.15
2023-01-12T07:17:32.774Z,1.40
2023-01-12T07:19:59.371Z,1.13
2023-01-12T07:22:26.951Z,1.60
2023-01-12T07:24:54.466Z,1.25
2023-01-12T07:27:21.847Z,1.20
2023-01-12T07:29:48.845Z,1.02
2023-01-12T07:32:15.144Z,0.88
2023-01-12T07:34:41.423Z,0.90
2023-01-12T07:37:07.892Z,1.00
2023-01-12T07:39:34.198Z,1.13
2023-01-12T07:42:19.425Z,0.60
2023-01-12T07:44:45.766Z,1.20
2023-01-12T07:47:12.153Z,1.30
2023-01-12T07:49:38.467Z,1.48
2023-01-12T07:52:04.891Z,1.27
2023-01-12T07:54:31.342Z,1.30
2023-01-12T07:56:58.819Z,1.30
2023-01-12T07:59:25.789Z,1.13
2023-01-12T08:01:53.779Z,0.95
2023-01-12T08:04:20.863Z,1.20
2023-01-12T08:06:47.187Z,0.90
2023-01-12T08:09:13.524Z,1.00
2023-01-12T08:11:39.887Z,1.10
2023-01-12T08:14:06.235Z,0.82
2023-01-12T08:16:35.821Z,0.90
2023-01-12T08:19:09.560Z,1.05
2023-01-12T08:21:41.721Z,1.02
2023-01-12T08:24:09.588Z,0.80
2023-01-12T08:26:38.437Z,1.35
2023-01-12T08:29:12.121Z,1.20
2023-01-12T08:31:39.475Z,1.20
2023-01-12T08:34:07.374Z,1.15
2023-01-12T08:36:34.338Z,0.80
2023-01-12T08:39:01.500Z,1.00
2023-01-12T08:41:33.899Z,0.80
2023-01-12T08:44:03.858Z,0.93
2023-01-12T08:46:34.606Z,1.08
2023-01-12T08:49:01.355Z,1.05
2023-01-12T08:51:28.286Z,1.00
2023-01-12T08:53:54.744Z,1.30
2023-01-12T08:56:21.355Z,0.98
2023-01-12T08:58:47.737Z,0.70
2023-01-12T09:01:15.770Z,1.20
2023-01-12T09:03:44.269Z,1.00
2023-01-12T09:06:17.208Z,0.90
2023-01-12T09:08:44.077Z,0.73
2023-01-12T09:11:11.201Z,0.90
2023-01-12T09:13:37.569Z,0.88
2023-01-12T09:16:14.670Z,0.63
2023-01-12T09:18:41.639Z,0.65
2023-01-12T09:21:09.503Z,0.70
2023-01-12T09:23:36.347Z,0.65
2023-01-12T09:26:13.657Z,0.80
2023-01-12T09:28:40.358Z,0.60
2023-01-12T09:31:07.848Z,0.60
2023-01-12T09:33:34.506Z,0.70
2023-01-12T09:36:01.631Z,0.60
2023-01-12T09:38:28.233Z,0.50
2023-01-12T09:40:55.435Z,0.50
2023-01-12T09:43:40.689Z,0.60
2023-01-12T09:46:31.707Z,0.70
2023-01-12T09:48:58.373Z,0.60
2023-01-12T09:51:28.695Z,0.60
2023-01-12T09:53:55.033Z,0.80
2023-01-12T09:56:25.637Z,0.50
2023-01-12T09:59:05.656Z,0.80
2023-01-12T10:01:32.080Z,0.52
2023-01-12T10:04:00.035Z,0.75
2023-01-12T10:06:26.510Z,0.68
2023-01-12T10:09:01.082Z,1.25
2023-01-12T10:11:35.170Z,0.70
2023-01-12T10:14:04.416Z,0.80
2023-01-12T10:16:36.884Z,0.73
2023-01-12T10:19:08.870Z,0.98
2023-01-12T10:21:35.361Z,0.80
2023-01-12T10:24:01.686Z,0.95
2023-01-12T10:26:33.407Z,0.82
2023-01-12T10:29:02.572Z,0.60
2023-01-12T10:31:29.077Z,0.43
2023-01-12T10:34:01.735Z,0.80
2023-01-12T10:36:29.537Z,0.63
2023-01-12T10:38:57.665Z,0.57
2023-01-12T10:41:54.897Z,0.70
2023-01-12T10:44:21.406Z,0.70
2023-01-12T10:47:07.551Z,0.80
2023-01-12T10:49:33.858Z,0.73
2023-01-12T10:52:08.116Z,0.90
2023-01-12T10:54:35.299Z,0.88
2023-01-12T10:57:07.743Z,0.77
2023-01-12T10:59:35.583Z,0.93
2023-01-12T11:02:08.396Z,0.90
2023-01-12T11:04:37.924Z,0.93
2023-01-12T11:07:12.319Z,0.52
2023-01-12T11:09:39.415Z,0.70
2023-01-12T11:12:23.727Z,0.82
2023-01-12T11:15:03.990Z,0.70
2023-01-12T11:17:34.337Z,0.90
2023-01-12T11:20:01.699Z,0.70
2023-01-12T11:22:31.386Z,0.60
2023-01-12T11:25:01.160Z,0.80
2023-01-12T11:27:43.219Z,0.95
2023-01-12T11:30:25.898Z,0.73
2023-01-12T11:32:58.858Z,0.85
2023-01-12T11:35:25.192Z,1.00
2023-01-12T11:37:53.394Z,0.90
2023-01-12T11:40:28.993Z,0.98
2023-01-12T11:43:15.268Z,0.63
2023-01-12T11:45:58.099Z,0.63
2023-01-12T11:48:36.030Z,0.70
2023-01-12T11:51:02.377Z,0.50
2023-01-12T11:53:28.737Z,0.60
2023-01-12T11:55:55.137Z,0.60
2023-01-12T11:58:39.372Z,0.82
2023-01-12T12:01:08.913Z,0.50
2023-01-12T12:03:38.872Z,0.90
2023-01-12T12:06:34.763Z,0.50
2023-01-12T12:09:24.364Z,0.60
2023-01-12T12:11:57.403Z,0.70
2023-01-12T12:14:37.143Z,0.80
2023-01-12T12:17:14.407Z,0.80
2023-01-12T12:19:59.682Z,0.50
2023-01-12T12:22:25.963Z,0.80
2023-01-12T12:24:55.439Z,0.50
2023-01-12T12:27:27.849Z,0.60
2023-01-12T12:30:13.289Z,0.57
2023-01-12T12:32:39.675Z,0.50
2023-01-12T12:35:05.970Z,0.63
2023-01-12T12:37:44.623Z,0.90
2023-01-12T12:40:11.058Z,0.68
2023-01-12T12:43:02.482Z,0.70
2023-01-12T12:45:31.902Z,0.47
2023-01-12T12:48:21.645Z,0.60
2023-01-12T12:51:04.474Z,0.50
2023-01-12T12:53:33.872Z,0.63
2023-01-12T12:56:07.847Z,0.30
2023-01-12T12:58:42.090Z,0.40
2023-01-12T13:01:20.490Z,0.40
2023-01-12T13:03:48.080Z,0.50
2023-01-12T13:06:34.265Z,0.60
2023-01-12T13:09:01.621Z,0.50
2023-01-12T13:11:46.875Z,0.55
2023-01-12T13:14:26.838Z,0.57
2023-01-12T13:16:54.449Z,0.68
2023-01-12T13:19:39.725Z,0.80
2023-01-12T13:22:25.653Z,0.40
2023-01-12T13:24:54.304Z,0.40
2023-01-12T13:27:39.321Z,0.32
2023-01-12T13:30:24.580Z,0.40
2023-01-12T13:33:11.170Z,0.70
2023-01-12T13:35:38.972Z,1.50
2023-01-12T13:38:28.477Z,0.90
2023-01-12T13:41:38.014Z,0.70
2023-01-12T13:44:06.143Z,0.88
2023-01-12T13:46:36.181Z,0.88
2023-01-12T13:49:03.773Z,0.73
2023-01-12T13:51:36.105Z,0.70
2023-01-12T13:54:02.486Z,0.68
2023-01-12T13:56:28.978Z,0.40
2023-01-12T13:59:03.079Z,0.40
2023-01-12T14:01:32.491Z,0.60
2023-01-12T14:03:59.104Z,0.52
2023-01-12T14:06:31.333Z,0.60
2023-01-12T14:08:57.820Z,0.57
2023-01-12T14:11:24.171Z,0.57
2023-01-12T14:14:30.856Z,0.50
2023-01-12T14:17:16.084Z,0.40
2023-01-12T14:19:49.470Z,0.52
2023-01-12T14:22:19.271Z,0.60
2023-01-12T14:24:45.570Z,0.40
2023-01-12T14:27:15.876Z,0.40
2023-01-12T14:29:42.233Z,0.52
2023-01-12T14:32:12.305Z,0.50
2023-01-12T14:34:39.112Z,0.40
2023-01-12T14:37:07.716Z,0.40
2023-01-12T14:39:38.109Z,0.40
2023-01-12T14:42:23.356Z,0.47
2023-01-12T14:45:10.162Z,0.50
2023-01-12T14:47:36.910Z,0.85
2023-01-12T14:50:12.356Z,1.15
2023-01-12T14:52:39.608Z,0.60
2023-01-12T14:55:41.709Z,0.65
2023-01-12T14:58:16.604Z,0.68
2023-01-12T15:00:43.376Z,1.00
2023-01-12T15:03:21.275Z,0.50
2023-01-12T15:05:54.847Z,0.60
2023-01-12T15:08:31.293Z,0.40
2023-01-12T15:10:57.609Z,0.60
2023-01-12T15:13:28.671Z,0.50
2023-01-12T15:16:14.744Z,0.80
2023-01-12T15:18:59.579Z,1.17
2023-01-12T15:21:45.373Z,0.50
2023-01-12T15:24:39.407Z,0.43
2023-01-12T15:27:06.957Z,0.45
2023-01-12T15:29:33.485Z,0.60
2023-01-12T15:32:00.279Z,0.55
2023-01-12T15:34:27.531Z,0.60
2023-01-12T15:36:53.836Z,0.40
2023-01-12T15:39:20.187Z,0.40
2023-01-12T15:42:05.421Z,0.30
2023-01-12T15:44:31.708Z,0.40
2023-01-12T15:46:58.034Z,0.82
2023-01-12T15:49:24.354Z,0.50
2023-01-12T15:51:51.078Z,0.30
2023-01-12T15:54:19.118Z,0.50
2023-01-12T15:56:45.725Z,0.68
2023-01-12T15:59:12.101Z,0.50
2023-01-12T16:01:43.760Z,0.70
2023-01-12T16:04:41.379Z,0.40
2023-01-12T16:07:03.675Z,0.68
2023-01-12T16:09:30.246Z,0.70
2023-01-12T16:11:56.559Z,0.45
2023-01-12T16:14:22.887Z,0.50
2023-01-12T16:16:49.724Z,0.40
2023-01-12T16:19:21.206Z,0.60
2023-01-12T16:21:47.556Z,0.70
2023-01-12T16:24:14.038Z,0.90
2023-01-12T16:26:40.395Z,0.40
2023-01-12T16:29:06.775Z,0.50
2023-01-12T16:31:33.297Z,0.50
2023-01-12T16:33:59.692Z,0.40
2023-01-12T16:36:25.987Z,0.40
2023-01-12T16:38:52.556Z,0.60
2023-01-12T16:41:19.265Z,0.60
2023-01-12T16:43:46.115Z,0.50
2023-01-12T16:46:12.735Z,0.50
2023-01-12T16:48:41.376Z,0.70
2023-01-12T16:51:18.094Z,0.50
2023-01-12T16:53:45.054Z,0.60
2023-01-12T16:56:12.568Z,0.63
2023-01-12T16:58:39.300Z,0.52
2023-01-12T17:01:12.577Z,0.52
2023-01-12T17:03:40.540Z,0.70
2023-01-12T17:06:09.178Z,0.50
2023-01-12T17:08:36.081Z,0.80
2023-01-12T17:11:06.440Z,0.50
2023-01-12T17:13:32.781Z,0.60
2023-01-12T17:15:59.243Z,0.77
2023-01-12T17:18:25.632Z,0.57
2023-01-12T17:21:01.891Z,0.30
2023-01-12T17:23:28.660Z,0.50
2023-01-12T17:25:55.799Z,0.47
2023-01-12T17:28:22.285Z,0.40
2023-01-12T17:30:48.912Z,0.60
2023-01-12T17:33:16.403Z,0.80
2023-01-12T17:35:42.717Z,0.90
2023-01-12T17:38:09.160Z,0.70
2023-01-12T17:40:35.467Z,0.70
2023-01-12T17:43:07.802Z,0.70
2023-01-12T17:45:39.079Z,0.73
2023-01-12T17:48:05.805Z,0.85
2023-01-12T17:50:32.173Z,0.85
2023-01-12T17:52:58.592Z,0.80
2023-01-12T17:55:26.416Z,1.10
2023-01-12T17:57:52.823Z,0.82
2023-01-12T18:00:19.395Z,0.60
2023-01-12T18:02:45.761Z,0.90
2023-01-12T18:05:12.125Z,0.77
2023-01-12T18:07:40.686Z,1.17
2023-01-12T18:10:10.373Z,1.13
2023-01-12T18:12:36.898Z,1.48
2023-01-12T18:15:04.439Z,1.00
2023-01-12T18:17:31.527Z,1.52
2023-01-12T18:19:58.838Z,1.15
2023-01-12T18:22:25.236Z,1.30
2023-01-12T18:24:51.542Z,1.67
2023-01-12T18:27:17.949Z,1.30
2023-01-12T18:29:44.284Z,1.00
2023-01-12T18:32:10.697Z,1.00
2023-01-12T18:34:38.772Z,0.80
2023-01-12T18:37:05.088Z,0.95
2023-01-12T18:39:31.505Z,1.20
2023-01-12T18:42:16.390Z,1.20
2023-01-12T18:44:42.808Z,1.00
2023-01-12T18:47:31.470Z,0.70
2023-01-12T18:49:58.598Z,1.23
2023-01-12T18:52:43.472Z,1.40
2023-01-12T18:55:09.911Z,1.23
2023-01-12T18:57:36.205Z,0.95
2023-01-12T19:00:18.050Z,1.77
2023-01-12T19:02:44.771Z,1.10
2023-01-12T19:05:25.776Z,0.80
2023-01-12T19:07:58.061Z,0.75
2023-01-12T19:10:24.593Z,0.68
2023-01-12T19:12:50.935Z,0.45
2023-01-12T19:15:36.042Z,0.70
2023-01-12T19:18:02.422Z,0.60
2023-01-12T19:20:30.187Z,0.60
2023-01-12T19:23:15.402Z,0.60
2023-01-12T19:26:00.547Z,0.50
2023-01-12T19:28:32.663Z,0.80
2023-01-12T19:31:00.795Z,1.10
2023-01-12T19:33:27.530Z,0.93
2023-01-12T19:35:54.060Z,0.75
2023-01-12T19:38:20.354Z,0.52
2023-01-12T19:40:52.322Z,0.70
2023-01-12T19:45:48.128Z,0.70
2023-01-12T19:48:15.596Z,0.80
2023-01-12T19:50:43.922Z,1.10
2023-01-12T19:53:12.183Z,1.05
2023-01-12T19:55:39.925Z,1.13
2023-01-12T19:58:08.733Z,1.20
2023-01-12T20:00:36.708Z,1.20
2023-01-12T20:03:03.294Z,1.35
2023-01-12T20:05:29.740Z,1.55
2023-01-12T20:07:56.135Z,1.50
2023-01-12T20:10:22.893Z,1.20
2023-01-12T20:12:51.228Z,1.00
2023-01-12T20:15:20.555Z,1.13
2023-01-12T20:17:49.579Z,1.05
2023-01-12T20:20:16.264Z,1.10
2023-01-12T20:22:42.611Z,0.90
2023-01-12T20:25:09.824Z,0.60
2023-01-12T20:27:36.685Z,0.90
2023-01-12T20:30:04.249Z,0.77
2023-01-12T20:32:31.809Z,1.20
2023-01-12T20:34:59.198Z,1.17
2023-01-12T20:37:25.597Z,1.33
2023-01-12T20:39:55.802Z,0.90
2023-01-12T20:42:22.350Z,1.10
2023-01-12T20:44:49.009Z,1.00
2023-01-12T20:47:15.416Z,0.80
2023-01-12T20:49:41.801Z,0.80
2023-01-12T20:52:08.284Z,0.73
2023-01-12T20:54:34.647Z,1.10
2023-01-12T20:57:00.961Z,1.10
2023-01-12T20:59:27.489Z,1.10
2023-01-12T21:01:53.971Z,0.82
2023-01-12T21:04:20.528Z,0.90
2023-01-12T21:06:47.554Z,0.70
2023-01-12T21:09:13.842Z,0.70
2023-01-12T21:11:42.138Z,0.90
2023-01-12T21:14:08.779Z,0.68
2023-01-12T21:16:35.317Z,0.70
2023-01-12T21:19:02.410Z,0.70
2023-01-12T21:21:28.931Z,0.80
2023-01-12T21:23:55.292Z,0.80
2023-01-12T21:26:21.653Z,0.90
2023-01-12T21:28:48.080Z,0.90
2023-01-12T21:31:14.502Z,0.90
2023-01-12T21:33:40.927Z,0.73
2023-01-12T21:36:07.522Z,0.98
2023-01-12T21:38:33.863Z,0.70
2023-01-12T21:41:01.769Z,0.70
2023-01-12T21:43:28.150Z,0.50
2023-01-12T21:45:54.765Z,1.10
2023-01-12T21:48:22.025Z,1.10
2023-01-12T21:50:48.544Z,0.70
2023-01-12T21:53:19.313Z,0.93
2023-01-12T21:55:53.065Z,0.75
2023-01-12T21:58:19.451Z,0.50
2023-01-12T22:00:45.757Z,0.68
2023-01-12T22:03:12.171Z,0.50
2023-01-12T22:05:38.924Z,0.50
2023-01-12T22:08:05.284Z,0.40
2023-01-12T22:10:31.816Z,0.40
2023-01-12T22:12:59.204Z,0.65
2023-01-12T22:15:27.064Z,0.40
2023-01-12T22:17:54.564Z,0.50
2023-01-12T22:20:21.025Z,0.43
2023-01-12T22:22:47.377Z,0.73
2023-01-12T22:25:14.870Z,0.70
2023-01-12T22:27:41.699Z,0.50
2023-01-12T22:30:08.758Z,0.50
2023-01-12T22:32:35.090Z,0.80
2023-01-12T22:35:01.668Z,0.68
2023-01-12T22:37:29.009Z,0.65
2023-01-12T22:39:55.681Z,0.40
2023-01-12T22:42:42.904Z,0.50
2023-01-12T22:45:09.613Z,0.40
2023-01-12T22:47:47.475Z,0.40
2023-01-12T22:50:14.902Z,0.50
2023-01-12T22:52:41.888Z,0.47
2023-01-12T22:55:08.490Z,0.40
2023-01-12T22:57:34.896Z,0.50
2023-01-12T23:00:01.292Z,0.47
2023-01-12T23:02:48.169Z,0.40
2023-01-12T23:05:14.506Z,0.30
2023-01-12T23:07:40.852Z,0.60
2023-01-12T23:10:07.330Z,0.35
2023-01-12T23:12:33.624Z,0.32
2023-01-12T23:14:59.933Z,0.55
2023-01-12T23:17:26.232Z,0.32
2023-01-12T23:19:52.539Z,0.30
2023-01-12T23:22:18.846Z,0.30
2023-01-12T23:24:45.134Z,0.40
2023-01-12T23:27:11.540Z,0.28
2023-01-12T23:29:38.480Z,0.35
2023-01-12T23:32:05.440Z,0.40
2023-01-12T23:34:31.733Z,0.50
2023-01-12T23:36:58.021Z,0.30
2023-01-12T23:39:24.301Z,0.30
2023-01-12T23:41:50.623Z,0.40
2023-01-12T23:44:17.550Z,0.40
2023-01-12T23:46:43.909Z,0.30
2023-01-12T23:49:10.842Z,0.30
2023-01-12T23:51:37.184Z,0.50
2023-01-12T23:54:03.865Z,0.30
2023-01-12T23:56:31.721Z,0.35
2023-01-12T23:58:58.008Z,0.30
